createdAt,value
2023-04-30T00:00:15.873Z,49.00
2023-04-30T00:02:43.646Z,47.90
2023-04-30T00:05:11.534Z,51.05
2023-04-30T00:07:42.340Z,54.67
2023-04-30T00:10:11.187Z,50.03
2023-04-30T00:12:39.126Z,46.03
2023-04-30T00:15:07.384Z,58.33
2023-04-30T00:17:34.792Z,45.58
2023-04-30T00:20:02.158Z,52.83
2023-04-30T00:22:30.904Z,48.15
2023-04-30T00:24:58.322Z,51.03
2023-04-30T00:27:25.719Z,54.95
2023-04-30T00:29:53.376Z,50.47
2023-04-30T00:32:21.702Z,53.70
2023-04-30T00:34:49.407Z,50.65
2023-04-30T00:37:16.750Z,52.10
2023-04-30T00:39:44.154Z,51.10
2023-04-30T00:42:11.681Z,52.80
2023-04-30T00:44:38.975Z,51.45
2023-04-30T00:47:06.515Z,52.45
2023-04-30T00:49:34.210Z,60.70
2023-04-30T00:52:02.053Z,54.75
2023-04-30T00:54:29.416Z,51.72
2023-04-30T00:56:58.208Z,57.40
2023-04-30T00:59:25.632Z,53.58
2023-04-30T01:01:53.924Z,54.67
2023-04-30T01:04:22.652Z,54.17
2023-04-30T01:06:50.130Z,56.97
2023-04-30T01:09:18.047Z,57.95
2023-04-30T01:12:06.000Z,52.20
2023-04-30T01:14:48.482Z,53.72
2023-04-30T01:17:39.476Z,58.63
2023-04-30T01:20:10.795Z,56.50
2023-04-30T01:22:52.395Z,65.05
2023-04-30T01:25:53.304Z,63.22
2023-04-30T01:28:24.747Z,62.65
2023-04-30T01:30:53.258Z,52.80
2023-04-30T01:33:21.165Z,56.58
2023-04-30T01:36:16.815Z,52.70
2023-04-30T01:39:03.667Z,60.13
2023-04-30T01:42:16.345Z,59.40
2023-04-30T01:45:09.717Z,59.55
2023-04-30T01:47:41.665Z,56.10
2023-04-30T01:50:36.162Z,60.35
2023-04-30T01:53:14.854Z,63.08
2023-04-30T01:55:45.254Z,57.80
2023-04-30T01:58:16.830Z,57.78
2023-04-30T02:00:46.654Z,62.28
2023-04-30T02:03:14.109Z,65.95
2023-04-30T02:05:41.753Z,69.45
2023-04-30T02:08:09.092Z,66.40
2023-04-30T02:10:36.791Z,65.35
2023-04-30T02:13:05.923Z,64.32
2023-04-30T02:15:33.282Z,64.00
2023-04-30T02:18:00.920Z,67.28
2023-04-30T02:20:28.430Z,72.00
2023-04-30T02:22:55.864Z,68.97
2023-04-30T02:25:24.490Z,68.32
2023-04-30T02:27:52.440Z,63.35
2023-04-30T02:30:22.621Z,72.20
2023-04-30T02:32:49.996Z,65.82
2023-04-30T02:35:17.543Z,68.93
2023-04-30T02:37:45.069Z,71.65
2023-04-30T02:40:12.686Z,75.47
2023-04-30T02:42:43.066Z,68.28
2023-04-30T02:45:10.522Z,72.15
2023-04-30T02:47:40.334Z,73.78
2023-04-30T02:50:08.211Z,75.55
2023-04-30T02:52:35.552Z,71.82
2023-04-30T02:55:03.018Z,69.97
2023-04-30T02:57:30.359Z,70.63
2023-04-30T03:00:00.575Z,78.28
2023-04-30T03:02:27.945Z,72.45
2023-04-30T03:04:55.384Z,76.30
2023-04-30T03:07:22.764Z,74.93
2023-04-30T03:09:50.485Z,74.55
2023-04-30T03:12:17.818Z,72.18
2023-04-30T03:14:45.180Z,73.80
2023-04-30T03:17:14.340Z,82.68
2023-04-30T03:19:41.667Z,69.78
2023-04-30T03:22:11.062Z,80.53
2023-04-30T03:24:39.098Z,80.00
2023-04-30T03:27:06.419Z,73.35
2023-04-30T03:29:34.334Z,73.90
2023-04-30T03:32:01.893Z,77.78
2023-04-30T03:34:31.882Z,70.45
2023-04-30T03:36:59.218Z,79.10
2023-04-30T03:39:26.610Z,69.20
2023-04-30T03:41:53.950Z,73.32
2023-04-30T03:44:21.363Z,75.22
2023-04-30T03:46:51.417Z,79.57
2023-04-30T03:49:18.822Z,73.72
2023-04-30T03:51:47.096Z,72.78
2023-04-30T03:54:14.440Z,72.75
2023-04-30T03:56:43.234Z,78.85
2023-04-30T03:59:12.085Z,77.47
2023-04-30T04:01:42.103Z,75.88
2023-04-30T04:04:09.801Z,83.32
2023-04-30T04:06:38.633Z,82.38
2023-04-30T04:09:06.381Z,79.07
2023-04-30T04:11:34.294Z,81.38
2023-04-30T04:14:02.798Z,78.03
2023-04-30T04:16:30.241Z,79.65
2023-04-30T04:18:57.589Z,79.13
2023-04-30T04:21:25.368Z,81.60
2023-04-30T04:23:52.922Z,74.55
2023-04-30T04:26:22.036Z,82.40
2023-04-30T04:28:49.427Z,76.35
2023-04-30T04:31:16.765Z,76.93
2023-04-30T04:33:44.872Z,78.72
2023-04-30T04:36:12.214Z,80.75
2023-04-30T04:38:39.568Z,80.32
2023-04-30T04:41:06.945Z,86.75
2023-04-30T04:43:34.235Z,81.90
2023-04-30T04:46:01.564Z,75.07
2023-04-30T04:48:29.032Z,86.63
2023-04-30T04:50:56.639Z,87.72
2023-04-30T04:53:24.325Z,80.47
2023-04-30T04:55:52.578Z,88.65
2023-04-30T04:58:21.473Z,92.32
2023-04-30T05:00:48.874Z,79.80
2023-04-30T05:03:16.358Z,83.82
2023-04-30T05:05:44.020Z,83.63
2023-04-30T05:08:12.731Z,79.07
2023-04-30T05:10:40.559Z,81.88
2023-04-30T05:13:07.840Z,81.13
2023-04-30T05:15:35.126Z,77.90
2023-04-30T05:18:02.502Z,78.05
2023-04-30T05:20:30.472Z,75.90
2023-04-30T05:22:59.085Z,82.93
2023-04-30T05:25:27.779Z,75.70
2023-04-30T05:27:55.212Z,77.78
2023-04-30T05:30:22.576Z,87.30
2023-04-30T05:32:52.182Z,71.55
2023-04-30T05:35:22.405Z,80.38
2023-04-30T05:37:50.167Z,81.47
2023-04-30T05:40:17.659Z,89.28
2023-04-30T05:42:44.997Z,76.28
2023-04-30T05:45:14.709Z,81.35
2023-04-30T05:47:42.080Z,75.88
2023-04-30T05:50:10.479Z,77.72
2023-04-30T05:52:38.098Z,83.88
2023-04-30T05:55:07.319Z,76.00
2023-04-30T05:57:35.517Z,81.15
2023-04-30T06:00:03.769Z,76.97
2023-04-30T06:02:31.585Z,81.78
2023-04-30T06:04:59.389Z,78.10
2023-04-30T06:07:27.232Z,84.07
2023-04-30T06:09:54.963Z,75.47
2023-04-30T06:12:23.399Z,77.60
2023-04-30T06:14:52.570Z,78.35
2023-04-30T06:17:21.323Z,76.40
2023-04-30T06:19:49.783Z,76.35
2023-04-30T06:22:19.498Z,76.38
2023-04-30T06:24:46.805Z,68.10
2023-04-30T06:27:15.305Z,76.38
2023-04-30T06:29:43.125Z,68.80
2023-04-30T06:32:11.195Z,74.45
2023-04-30T06:34:39.209Z,63.70
2023-04-30T06:37:06.629Z,77.82
2023-04-30T06:39:33.974Z,62.58
2023-04-30T06:42:02.557Z,72.57
2023-04-30T06:44:29.861Z,67.28
2023-04-30T06:46:58.341Z,74.93
2023-04-30T06:49:25.798Z,66.55
2023-04-30T06:51:53.155Z,67.13
2023-04-30T06:54:22.893Z,71.05
2023-04-30T06:56:50.422Z,60.60
2023-04-30T06:59:18.022Z,65.50
2023-04-30T07:01:45.415Z,63.65
2023-04-30T07:04:12.852Z,58.97
2023-04-30T07:06:40.215Z,50.30
2023-04-30T07:09:10.286Z,62.63
2023-04-30T07:11:37.653Z,68.88
2023-04-30T07:14:05.186Z,53.80
2023-04-30T07:16:33.392Z,58.13
2023-04-30T07:19:01.088Z,59.03
2023-04-30T07:21:29.760Z,61.17
2023-04-30T07:23:57.379Z,62.65
2023-04-30T07:26:26.582Z,62.63
2023-04-30T07:28:53.971Z,64.97
2023-04-30T07:31:23.913Z,65.88
2023-04-30T07:33:51.622Z,62.55
2023-04-30T07:36:19.024Z,61.35
2023-04-30T07:38:46.318Z,50.03
2023-04-30T07:41:16.536Z,58.63
2023-04-30T07:43:43.917Z,56.15
2023-04-30T07:46:11.520Z,59.03
2023-04-30T07:48:41.474Z,59.53
2023-04-30T07:51:08.958Z,51.53
2023-04-30T07:53:36.597Z,53.83
2023-04-30T07:56:04.718Z,51.45
2023-04-30T07:58:33.259Z,60.65
2023-04-30T08:01:00.973Z,52.67
2023-04-30T08:03:28.394Z,47.08
2023-04-30T08:05:56.555Z,58.67
2023-04-30T08:08:24.292Z,57.83
2023-04-30T08:10:51.674Z,56.83
2023-04-30T08:13:20.812Z,58.08
2023-04-30T08:15:48.504Z,57.55
2023-04-30T08:20:43.717Z,58.30
2023-04-30T08:23:11.220Z,62.47
2023-04-30T08:25:38.794Z,53.58
2023-04-30T08:28:07.359Z,64.18
2023-04-30T08:30:34.818Z,57.55
2023-04-30T08:33:02.494Z,48.55
2023-04-30T08:35:30.094Z,55.00
2023-04-30T08:37:57.452Z,57.13
2023-04-30T08:40:43.871Z,58.55
2023-04-30T08:43:13.970Z,68.75
2023-04-30T08:45:42.208Z,57.85
2023-04-30T08:48:15.219Z,57.20
2023-04-30T08:50:43.193Z,61.28
2023-04-30T08:53:13.255Z,62.58
2023-04-30T08:55:41.997Z,55.38
2023-04-30T08:58:11.083Z,68.97
2023-04-30T09:00:42.079Z,59.65
2023-04-30T09:03:09.725Z,64.85
2023-04-30T09:05:38.595Z,52.53
2023-04-30T09:08:07.883Z,52.63
2023-04-30T09:10:36.022Z,50.70
2023-04-30T09:13:10.321Z,47.05
2023-04-30T09:15:41.491Z,38.25
2023-04-30T09:18:17.907Z,39.13
2023-04-30T09:21:02.101Z,40.92
2023-04-30T09:23:30.522Z,37.47
2023-04-30T09:25:58.446Z,32.30
2023-04-30T09:28:27.650Z,43.45
2023-04-30T09:30:58.402Z,34.55
2023-04-30T09:33:26.099Z,33.15
2023-04-30T09:35:55.767Z,33.03
2023-04-30T09:38:32.185Z,34.67
2023-04-30T09:41:02.053Z,36.92
2023-04-30T09:43:30.226Z,29.95
2023-04-30T09:46:00.113Z,28.75
2023-04-30T09:48:28.990Z,28.73
2023-04-30T09:50:57.124Z,28.30
2023-04-30T09:53:24.535Z,27.63
2023-04-30T09:55:52.162Z,28.45
2023-04-30T09:58:20.531Z,34.58
2023-04-30T10:00:49.745Z,23.75
2023-04-30T10:03:17.370Z,28.25
2023-04-30T10:05:47.276Z,25.83
2023-04-30T10:08:44.514Z,28.77
2023-04-30T10:11:17.117Z,23.80
2023-04-30T10:13:53.745Z,22.50
2023-04-30T10:16:40.756Z,22.90
2023-04-30T10:19:15.764Z,21.58
2023-04-30T10:21:45.789Z,24.00
2023-04-30T10:24:20.239Z,19.73
2023-04-30T10:26:48.550Z,26.25
2023-04-30T10:29:17.224Z,20.17
2023-04-30T10:31:53.160Z,25.27
2023-04-30T10:35:07.277Z,22.90
2023-04-30T10:37:48.624Z,21.80
2023-04-30T10:40:16.044Z,21.27
2023-04-30T10:42:50.347Z,28.30
2023-04-30T10:45:17.929Z,31.40
2023-04-30T10:47:47.422Z,21.35
2023-04-30T10:50:15.082Z,21.77
2023-04-30T10:52:44.569Z,19.98
2023-04-30T10:55:17.226Z,23.77
2023-04-30T10:57:46.727Z,22.42
2023-04-30T11:00:20.575Z,20.17
2023-04-30T11:02:49.932Z,20.98
2023-04-30T11:05:19.620Z,22.60
2023-04-30T11:07:52.429Z,21.42
2023-04-30T11:10:22.974Z,23.30
2023-04-30T11:12:51.920Z,26.40
2023-04-30T11:15:25.097Z,19.48
2023-04-30T11:17:58.743Z,23.50
2023-04-30T11:20:27.081Z,18.58
2023-04-30T11:23:19.639Z,26.02
2023-04-30T11:25:49.704Z,18.83
2023-04-30T11:28:18.334Z,20.77
2023-04-30T11:30:51.727Z,22.77
2023-04-30T11:33:19.829Z,17.08
2023-04-30T11:35:52.083Z,15.50
2023-04-30T11:38:28.843Z,21.70
2023-04-30T11:41:00.542Z,17.05
2023-04-30T11:43:29.076Z,19.52
2023-04-30T11:46:06.297Z,23.70
2023-04-30T11:48:38.158Z,21.35
2023-04-30T11:51:27.017Z,17.77
2023-04-30T11:53:54.581Z,28.70
2023-04-30T11:56:24.172Z,20.85
2023-04-30T11:58:57.943Z,18.83
2023-04-30T12:01:28.733Z,22.73
2023-04-30T12:03:57.705Z,15.77
2023-04-30T12:06:31.519Z,16.77
2023-04-30T12:09:09.340Z,19.27
2023-04-30T12:11:38.321Z,19.10
2023-04-30T12:14:10.565Z,12.45
2023-04-30T12:16:50.359Z,12.68
2023-04-30T12:19:22.431Z,8.45
2023-04-30T12:21:50.468Z,10.65
2023-04-30T12:24:19.312Z,10.60
2023-04-30T12:26:48.310Z,9.85
2023-04-30T12:29:17.659Z,12.52
2023-04-30T12:31:46.163Z,8.90
2023-04-30T12:34:14.866Z,10.25
2023-04-30T12:36:43.270Z,10.95
2023-04-30T12:39:13.430Z,9.52
2023-04-30T12:41:44.776Z,12.18
2023-04-30T12:44:22.193Z,11.70
2023-04-30T12:46:51.412Z,11.65
2023-04-30T12:49:30.833Z,7.32
2023-04-30T12:52:09.534Z,14.70
2023-04-30T12:54:38.168Z,12.75
2023-04-30T12:57:09.845Z,12.35
2023-04-30T12:59:53.808Z,12.13
2023-04-30T13:02:25.063Z,13.55
2023-04-30T13:05:04.705Z,11.73
2023-04-30T13:07:40.943Z,13.15
2023-04-30T13:10:08.843Z,12.10
2023-04-30T13:12:36.348Z,13.00
2023-04-30T13:15:04.041Z,11.77
2023-04-30T13:17:31.346Z,16.35
2023-04-30T13:19:58.725Z,12.23
2023-04-30T13:22:29.622Z,9.90
2023-04-30T13:24:57.107Z,12.95
2023-04-30T13:27:24.466Z,14.13
2023-04-30T13:29:51.805Z,14.07
2023-04-30T13:35:43.105Z,12.82
2023-04-30T13:38:10.394Z,9.10
2023-04-30T13:40:37.707Z,13.38
2023-04-30T13:43:05.053Z,11.10
2023-04-30T13:45:33.402Z,10.10
2023-04-30T13:48:00.683Z,9.93
2023-04-30T13:50:28.021Z,11.60
2023-04-30T13:52:55.582Z,10.80
2023-04-30T13:55:25.047Z,11.55
2023-04-30T13:57:55.905Z,17.48
2023-04-30T14:00:23.226Z,15.23
2023-04-30T14:02:50.886Z,12.18
2023-04-30T14:05:18.412Z,8.35
2023-04-30T14:07:46.724Z,11.35
2023-04-30T14:10:14.151Z,10.55
2023-04-30T14:12:41.592Z,8.95
2023-04-30T14:15:10.361Z,21.65
2023-04-30T14:17:37.833Z,64.38
2023-04-30T14:20:06.067Z,35.35
2023-04-30T14:22:35.887Z,51.03
2023-04-30T14:25:04.161Z,12.73
2023-04-30T14:27:31.648Z,31.48
2023-04-30T14:29:59.106Z,11.70
2023-04-30T14:32:28.047Z,9.77
2023-04-30T14:34:55.578Z,8.63
2023-04-30T14:37:23.010Z,10.38
2023-04-30T14:39:52.884Z,10.82
2023-04-30T14:42:20.668Z,10.55
2023-04-30T14:44:48.108Z,9.52
2023-04-30T14:47:15.557Z,8.02
2023-04-30T14:49:42.984Z,9.45
2023-04-30T14:52:10.786Z,9.57
2023-04-30T14:54:38.687Z,9.80
2023-04-30T14:57:06.872Z,9.02
2023-04-30T15:00:41.499Z,8.48
2023-04-30T15:03:09.394Z,6.88
2023-04-30T15:05:36.907Z,5.30
2023-04-30T15:08:04.550Z,7.13
2023-04-30T15:10:31.892Z,8.48
2023-04-30T15:12:59.209Z,8.10
2023-04-30T15:15:29.168Z,9.05
2023-04-30T15:17:58.012Z,12.35
2023-04-30T15:20:27.284Z,11.63
2023-04-30T15:22:58.606Z,9.38
2023-04-30T15:25:26.642Z,9.05
2023-04-30T15:27:54.769Z,9.68
2023-04-30T15:30:22.178Z,7.97
2023-04-30T15:32:50.498Z,9.80
2023-04-30T15:35:18.044Z,9.07
2023-04-30T15:37:45.430Z,8.25
2023-04-30T15:40:15.413Z,11.10
2023-04-30T15:42:43.707Z,14.32
2023-04-30T15:45:11.212Z,9.75
2023-04-30T15:47:39.080Z,11.15
2023-04-30T15:50:07.347Z,11.90
2023-04-30T15:52:35.042Z,8.50
2023-04-30T15:55:02.399Z,6.38
2023-04-30T15:57:29.807Z,9.02
2023-04-30T15:59:57.626Z,7.95
2023-04-30T16:02:25.208Z,9.30
2023-04-30T16:04:52.677Z,10.52
2023-04-30T16:07:20.027Z,9.00
2023-04-30T16:09:49.159Z,10.25
2023-04-30T16:12:16.471Z,7.57
2023-04-30T16:14:43.879Z,10.85
2023-04-30T16:17:11.341Z,6.50
2023-04-30T16:19:38.743Z,6.97
2023-04-30T16:22:06.184Z,8.15
2023-04-30T16:24:33.622Z,8.27
2023-04-30T16:27:01.236Z,10.05
2023-04-30T16:29:28.560Z,8.23
2023-04-30T16:31:56.677Z,7.60
2023-04-30T16:34:24.180Z,8.27
2023-04-30T16:36:51.501Z,7.53
2023-04-30T16:39:18.750Z,7.43
2023-04-30T16:41:46.065Z,7.47
2023-04-30T16:44:13.433Z,7.00
2023-04-30T16:46:40.749Z,6.32
2023-04-30T16:49:08.201Z,8.27
2023-04-30T16:51:35.507Z,6.80
2023-04-30T16:54:02.903Z,6.55
2023-04-30T16:56:30.379Z,10.20
2023-04-30T16:58:57.614Z,8.15
2023-04-30T17:01:24.967Z,7.25
2023-04-30T17:03:52.442Z,6.53
2023-04-30T17:06:20.008Z,8.40
2023-04-30T17:08:47.401Z,10.70
2023-04-30T17:11:19.247Z,7.15
2023-04-30T17:13:46.839Z,13.07
2023-04-30T17:16:14.248Z,8.27
2023-04-30T17:18:41.865Z,6.15
2023-04-30T17:21:10.363Z,7.45
2023-04-30T17:23:37.732Z,8.30
2023-04-30T17:26:05.811Z,5.20
2023-04-30T17:28:33.191Z,7.50
2023-04-30T17:31:06.773Z,8.02
2023-04-30T17:33:35.655Z,5.70
2023-04-30T17:36:03.156Z,5.47
2023-04-30T17:38:30.780Z,5.25
2023-04-30T17:40:58.300Z,11.85
2023-04-30T17:43:25.917Z,6.53
2023-04-30T17:45:53.658Z,8.95
2023-04-30T17:48:21.155Z,8.00
2023-04-30T17:50:48.586Z,11.05
2023-04-30T17:53:16.111Z,6.28
2023-04-30T17:55:43.468Z,5.55
2023-04-30T17:58:11.587Z,7.72
2023-04-30T18:00:42.921Z,6.47
2023-04-30T18:03:10.424Z,8.10
2023-04-30T18:05:39.243Z,6.25
2023-04-30T18:08:06.766Z,5.47
2023-04-30T18:10:34.205Z,10.20
2023-04-30T18:13:01.605Z,7.80
2023-04-30T18:15:29.594Z,7.22
2023-04-30T18:17:57.100Z,8.45
2023-04-30T18:20:24.520Z,5.35
2023-04-30T18:22:51.877Z,5.22
2023-04-30T18:25:19.289Z,5.07
2023-04-30T18:27:46.581Z,7.20
2023-04-30T18:30:14.067Z,5.53
2023-04-30T18:32:41.954Z,6.65
2023-04-30T18:35:10.241Z,8.02
2023-04-30T18:37:37.536Z,6.10
2023-04-30T18:40:05.384Z,5.80
2023-04-30T18:42:33.516Z,7.40
2023-04-30T18:45:02.196Z,6.00
2023-04-30T18:47:30.987Z,6.50
2023-04-30T18:49:59.034Z,11.02
2023-04-30T18:52:26.544Z,8.38
2023-04-30T18:54:53.958Z,9.25
2023-04-30T18:57:21.529Z,9.32
2023-04-30T18:59:49.302Z,15.02
2023-04-30T19:02:16.746Z,10.80
2023-04-30T19:04:45.770Z,15.13
2023-04-30T19:07:14.393Z,11.18
2023-04-30T19:09:41.797Z,11.73
2023-04-30T19:12:10.564Z,11.00
2023-04-30T19:14:38.051Z,10.70
2023-04-30T19:17:05.859Z,11.45
2023-04-30T19:19:36.914Z,9.65
2023-04-30T19:26:43.090Z,9.65
2023-04-30T19:29:10.880Z,6.10
2023-04-30T19:35:29.890Z,16.92
2023-04-30T19:38:16.174Z,18.60
2023-04-30T19:40:48.020Z,18.13
2023-04-30T19:43:16.582Z,28.48
2023-04-30T19:45:50.131Z,24.30
2023-04-30T19:48:17.761Z,29.88
2023-04-30T19:50:54.386Z,27.50
2023-04-30T19:53:22.799Z,28.50
2023-04-30T19:55:52.489Z,30.35
2023-04-30T19:58:22.540Z,31.98
2023-04-30T20:00:50.031Z,26.70
2023-04-30T20:03:19.944Z,36.75
2023-04-30T20:05:47.341Z,30.02
2023-04-30T20:08:14.827Z,33.55
2023-04-30T20:10:42.896Z,34.78
2023-04-30T20:13:10.386Z,30.40
2023-04-30T20:15:37.697Z,36.30
2023-04-30T20:18:06.106Z,38.47
2023-04-30T20:20:33.530Z,40.00
2023-04-30T20:23:14.054Z,37.63
2023-04-30T20:25:44.921Z,39.85
2023-04-30T20:28:13.350Z,38.22
2023-04-30T20:30:42.906Z,39.63
2023-04-30T20:33:11.920Z,36.08
2023-04-30T20:35:47.312Z,35.95
2023-04-30T20:38:19.533Z,44.80
2023-04-30T20:40:47.358Z,39.20
2023-04-30T20:43:17.013Z,36.13
2023-04-30T20:45:45.364Z,35.35
2023-04-30T20:48:12.971Z,36.17
2023-04-30T20:50:48.029Z,40.22
2023-04-30T20:53:18.334Z,38.00
2023-04-30T20:55:46.576Z,40.88
2023-04-30T20:58:14.071Z,39.20
2023-04-30T21:00:41.598Z,40.13
2023-04-30T21:03:09.637Z,33.40
2023-04-30T21:05:37.175Z,33.95
2023-04-30T21:08:04.644Z,30.17
2023-04-30T21:10:36.517Z,35.45
2023-04-30T21:13:05.721Z,36.60
2023-04-30T21:15:35.763Z,35.55
2023-04-30T21:18:03.425Z,33.78
2023-04-30T21:20:31.629Z,41.03
2023-04-30T21:22:59.345Z,35.63
2023-04-30T21:25:27.033Z,33.10
2023-04-30T21:27:54.948Z,34.53
2023-04-30T21:30:24.377Z,38.90
2023-04-30T21:32:58.475Z,39.70
2023-04-30T21:35:27.932Z,40.75
2023-04-30T21:37:56.357Z,40.60
2023-04-30T21:40:23.953Z,37.50
2023-04-30T21:42:52.847Z,35.08
2023-04-30T21:45:20.415Z,40.67
2023-04-30T21:47:50.092Z,38.47
2023-04-30T21:50:18.016Z,30.85
2023-04-30T21:52:45.375Z,33.45
2023-04-30T21:55:12.733Z,36.75
2023-04-30T21:57:40.165Z,34.22
2023-04-30T22:00:08.866Z,38.83
2023-04-30T22:02:36.476Z,38.38
2023-04-30T22:05:04.474Z,39.55
2023-04-30T22:07:31.943Z,41.00
2023-04-30T22:09:59.328Z,38.40
2023-04-30T22:12:26.982Z,35.50
2023-04-30T22:14:56.345Z,36.25
2023-04-30T22:17:23.774Z,38.10
2023-04-30T22:19:51.226Z,37.38
2023-04-30T22:22:18.743Z,38.90
2023-04-30T22:24:46.395Z,42.70
2023-04-30T22:27:14.412Z,40.53
2023-04-30T22:29:42.684Z,36.30
2023-04-30T22:32:10.056Z,38.33
2023-04-30T22:34:41.905Z,38.67
2023-04-30T22:37:12.561Z,36.00
2023-04-30T22:39:40.150Z,35.42
2023-04-30T22:42:09.665Z,36.75
2023-04-30T22:44:40.085Z,41.47
2023-04-30T22:47:07.732Z,39.13
2023-04-30T22:49:36.232Z,30.27
2023-04-30T22:52:04.606Z,33.72
2023-04-30T22:54:32.098Z,33.90
2023-04-30T22:56:59.812Z,32.90
2023-04-30T22:59:27.179Z,32.83
2023-04-30T23:01:54.782Z,32.42
2023-04-30T23:04:22.719Z,34.90
2023-04-30T23:06:50.194Z,35.45
2023-04-30T23:09:17.678Z,38.88
2023-04-30T23:11:45.329Z,32.33
2023-04-30T23:14:13.167Z,34.10
2023-04-30T23:16:42.840Z,33.83
2023-04-30T23:19:10.831Z,31.83
2023-04-30T23:21:38.763Z,34.05
2023-04-30T23:24:06.115Z,33.33
2023-04-30T23:26:33.415Z,32.13
2023-04-30T23:29:01.075Z,39.10
2023-04-30T23:31:28.683Z,31.20
2023-04-30T23:33:56.248Z,28.13
2023-04-30T23:36:23.883Z,30.23
2023-04-30T23:38:54.400Z,31.60
2023-04-30T23:41:21.764Z,30.20
2023-04-30T23:43:49.135Z,31.73
2023-04-30T23:46:16.813Z,29.90
2023-04-30T23:48:44.302Z,30.13
2023-04-30T23:51:11.924Z,29.52
2023-04-30T23:53:39.688Z,29.05
2023-04-30T23:56:09.263Z,33.05
2023-04-30T23:58:36.676Z,34.20
